sensor_id;sensor_type;location;lat;lon;timestamp;pressure;altitude;pressure_sealevel;temperature;humidity
78717;BME280;68045;50.042;14.432;2023-07-20T00:00:10;97832.38;;;19.75;57.01
78717;BME280;68045;50.042;14.432;2023-07-20T00:04:35;97842.59;;;19.46;57.82
78717;BME280;68045;50.042;14.432;2023-07-20T00:08:37;97848.25;;;19.17;58.82
78717;BME280;68045;50.042;14.432;2023-07-20T00:12:37;97852.78;;;19.16;58.92
78717;BME280;68045;50.042;14.432;2023-07-20T00:16:38;97859.53;;;19.55;58.18
78717;BME280;68045;50.042;14.432;2023-07-20T00:20:39;97863.72;;;19.89;57.00
78717;BME280;68045;50.042;14.432;2023-07-20T00:24:40;97864.16;;;20.05;56.59
78717;BME280;68045;50.042;14.432;2023-07-20T00:28:41;97863.94;;;20.15;56.35
78717;BME280;68045;50.042;14.432;2023-07-20T00:32:42;97866.81;;;20.18;55.77
78717;BME280;68045;50.042;14.432;2023-07-20T00:36:43;97863.03;;;20.19;56.22
78717;BME280;68045;50.042;14.432;2023-07-20T00:40:44;97856.22;;;20.13;56.26
78717;BME280;68045;50.042;14.432;2023-07-20T00:44:45;97867.22;;;20.12;56.22
78717;BME280;68045;50.042;14.432;2023-07-20T00:48:46;97855.34;;;20.04;56.43
78717;BME280;68045;50.042;14.432;2023-07-20T00:52:48;97856.13;;;20.05;56.56
78717;BME280;68045;50.042;14.432;2023-07-20T00:56:49;97865.47;;;19.93;56.72
78717;BME280;68045;50.042;14.432;2023-07-20T01:00:51;97866.28;;;19.80;57.50
78717;BME280;68045;50.042;14.432;2023-07-20T01:04:55;97871.38;;;19.82;57.14
78717;BME280;68045;50.042;14.432;2023-07-20T01:08:57;97877.88;;;19.48;58.20
78717;BME280;68045;50.042;14.432;2023-07-20T01:13:01;97873.81;;;19.37;58.64
78717;BME280;68045;50.042;14.432;2023-07-20T01:17:03;97886.09;;;19.24;59.25
78717;BME280;68045;50.042;14.432;2023-07-20T01:21:07;97887.66;;;19.11;59.54
78717;BME280;68045;50.042;14.432;2023-07-20T01:25:21;97888.34;;;19.03;60.44
78717;BME280;68045;50.042;14.432;2023-07-20T01:33:34;97898.75;;;18.72;61.01
78717;BME280;68045;50.042;14.432;2023-07-20T01:37:37;97898.88;;;18.62;61.10
78717;BME280;68045;50.042;14.432;2023-07-20T01:41:38;97898.38;;;18.41;62.30
78717;BME280;68045;50.042;14.432;2023-07-20T01:45:39;97910.22;;;18.35;62.21
78717;BME280;68045;50.042;14.432;2023-07-20T01:49:40;97900.25;;;18.22;62.75
78717;BME280;68045;50.042;14.432;2023-07-20T01:53:42;97900.59;;;18.15;63.21
78717;BME280;68045;50.042;14.432;2023-07-20T01:57:42;97894.44;;;17.96;63.77
78717;BME280;68045;50.042;14.432;2023-07-20T02:01:43;97894.88;;;18.03;63.31
78717;BME280;68045;50.042;14.432;2023-07-20T02:05:45;97885.78;;;18.04;63.27
78717;BME280;68045;50.042;14.432;2023-07-20T02:09:46;97893.75;;;18.09;63.04
78717;BME280;68045;50.042;14.432;2023-07-20T02:13:48;97894.53;;;18.09;62.96
78717;BME280;68045;50.042;14.432;2023-07-20T02:17:49;97893.81;;;18.04;63.01
78717;BME280;68045;50.042;14.432;2023-07-20T02:21:50;97891.41;;;18.02;63.16
78717;BME280;68045;50.042;14.432;2023-07-20T02:25:51;97887.38;;;17.86;64.05
78717;BME280;68045;50.042;14.432;2023-07-20T02:29:52;97881.44;;;17.89;63.91
78717;BME280;68045;50.042;14.432;2023-07-20T02:33:52;97881.69;;;17.93;63.94
78717;BME280;68045;50.042;14.432;2023-07-20T02:37:53;97900.38;;;17.93;63.72
78717;BME280;68045;50.042;14.432;2023-07-20T02:41:54;97894.53;;;17.91;64.08
78717;BME280;68045;50.042;14.432;2023-07-20T02:45:55;97901.81;;;17.85;64.23
78717;BME280;68045;50.042;14.432;2023-07-20T02:49:56;97892.75;;;17.81;64.31
78717;BME280;68045;50.042;14.432;2023-07-20T02:53:57;97898.06;;;17.86;64.02
78717;BME280;68045;50.042;14.432;2023-07-20T02:57:58;97908.34;;;17.69;64.90
78717;BME280;68045;50.042;14.432;2023-07-20T03:01:59;97902.94;;;17.55;65.39
78717;BME280;68045;50.042;14.432;2023-07-20T03:06:00;97895.31;;;17.43;65.77
78717;BME280;68045;50.042;14.432;2023-07-20T03:10:01;97910.91;;;17.31;65.73
78717;BME280;68045;50.042;14.432;2023-07-20T03:14:04;97905.03;;;17.34;65.61
78717;BME280;68045;50.042;14.432;2023-07-20T03:18:05;97921.03;;;17.34;65.53
78717;BME280;68045;50.042;14.432;2023-07-20T03:22:06;97928.56;;;17.27;65.89
78717;BME280;68045;50.042;14.432;2023-07-20T03:26:07;97918.75;;;17.17;66.29
78717;BME280;68045;50.042;14.432;2023-07-20T03:30:11;97918.47;;;17.19;66.25
78717;BME280;68045;50.042;14.432;2023-07-20T03:34:12;97921.41;;;17.22;66.03
78717;BME280;68045;50.042;14.432;2023-07-20T03:38:13;97917.28;;;17.35;65.92
78717;BME280;68045;50.042;14.432;2023-07-20T03:42:14;97918.56;;;17.38;65.97
78717;BME280;68045;50.042;14.432;2023-07-20T03:46:15;97928.44;;;17.37;65.62
78717;BME280;68045;50.042;14.432;2023-07-20T03:50:15;97926.41;;;17.29;65.86
78717;BME280;68045;50.042;14.432;2023-07-20T03:54:16;97927.69;;;17.32;65.70
78717;BME280;68045;50.042;14.432;2023-07-20T03:58:18;97944.03;;;17.25;66.10
78717;BME280;68045;50.042;14.432;2023-07-20T04:02:19;97943.06;;;17.16;66.57
78717;BME280;68045;50.042;14.432;2023-07-20T04:06:20;97935.09;;;17.11;66.71
78717;BME280;68045;50.042;14.432;2023-07-20T04:10:21;97938.81;;;17.15;66.69
78717;BME280;68045;50.042;14.432;2023-07-20T04:14:26;97931.03;;;17.18;66.54
78717;BME280;68045;50.042;14.432;2023-07-20T04:18:27;97943.63;;;17.42;65.93
78717;BME280;68045;50.042;14.432;2023-07-20T04:22:28;97949.03;;;17.61;65.39
78717;BME280;68045;50.042;14.432;2023-07-20T04:26:29;97950.97;;;17.55;65.63
78717;BME280;68045;50.042;14.432;2023-07-20T04:30:30;97950.56;;;17.67;65.19
78717;BME280;68045;50.042;14.432;2023-07-20T04:34:33;97954.47;;;17.79;64.89
78717;BME280;68045;50.042;14.432;2023-07-20T04:38:38;97949.91;;;17.80;64.83
78717;BME280;68045;50.042;14.432;2023-07-20T04:42:45;97942.75;;;17.99;64.25
78717;BME280;68045;50.042;14.432;2023-07-20T04:46:46;97950.91;;;18.08;63.35
78717;BME280;68045;50.042;14.432;2023-07-20T04:50:47;97952.44;;;18.14;63.56
78717;BME280;68045;50.042;14.432;2023-07-20T04:54:49;97949.78;;;18.52;62.75
78717;BME280;68045;50.042;14.432;2023-07-20T04:58:49;97958.72;;;18.66;61.96
78717;BME280;68045;50.042;14.432;2023-07-20T05:02:51;97960.16;;;18.77;61.88
78717;BME280;68045;50.042;14.432;2023-07-20T05:06:51;97961.00;;;18.91;60.65
78717;BME280;68045;50.042;14.432;2023-07-20T05:10:52;97958.97;;;19.02;60.32
78717;BME280;68045;50.042;14.432;2023-07-20T05:14:54;97957.53;;;18.91;61.20
78717;BME280;68045;50.042;14.432;2023-07-20T05:18:55;97964.84;;;19.04;60.65
78717;BME280;68045;50.042;14.432;2023-07-20T05:22:58;97966.03;;;19.12;60.63
78717;BME280;68045;50.042;14.432;2023-07-20T05:27:00;97961.56;;;19.07;60.36
78717;BME280;68045;50.042;14.432;2023-07-20T05:31:02;97965.56;;;18.91;60.85
78717;BME280;68045;50.042;14.432;2023-07-20T05:35:04;97972.28;;;18.88;61.35
78717;BME280;68045;50.042;14.432;2023-07-20T05:39:05;97967.31;;;18.82;61.77
78717;BME280;68045;50.042;14.432;2023-07-20T05:43:06;97966.94;;;18.88;61.52
78717;BME280;68045;50.042;14.432;2023-07-20T05:47:07;97964.78;;;18.90;61.50
78717;BME280;68045;50.042;14.432;2023-07-20T05:51:08;97967.75;;;18.89;61.42
78717;BME280;68045;50.042;14.432;2023-07-20T05:55:09;97972.63;;;19.01;61.53
78717;BME280;68045;50.042;14.432;2023-07-20T05:59:10;97975.69;;;19.27;61.08
78717;BME280;68045;50.042;14.432;2023-07-20T06:03:11;97972.34;;;19.35;60.55
78717;BME280;68045;50.042;14.432;2023-07-20T06:07:12;97972.44;;;19.43;59.97
78717;BME280;68045;50.042;14.432;2023-07-20T06:11:12;97979.69;;;19.43;59.48
78717;BME280;68045;50.042;14.432;2023-07-20T06:15:27;97984.41;;;19.65;58.92
78717;BME280;68045;50.042;14.432;2023-07-20T06:19:29;97977.81;;;19.90;57.87
78717;BME280;68045;50.042;14.432;2023-07-20T06:23:30;97979.56;;;20.22;57.87
78717;BME280;68045;50.042;14.432;2023-07-20T06:27:30;97973.09;;;20.50;55.25
78717;BME280;68045;50.042;14.432;2023-07-20T06:31:33;97972.00;;;20.88;53.81
78717;BME280;68045;50.042;14.432;2023-07-20T06:35:34;97977.38;;;21.10;53.35
78717;BME280;68045;50.042;14.432;2023-07-20T06:39:36;97972.31;;;21.31;52.25
78717;BME280;68045;50.042;14.432;2023-07-20T06:43:37;97960.63;;;21.58;51.39
78717;BME280;68045;50.042;14.432;2023-07-20T06:47:38;97959.38;;;21.64;50.87
78717;BME280;68045;50.042;14.432;2023-07-20T06:51:40;97963.72;;;21.82;50.54
78717;BME280;68045;50.042;14.432;2023-07-20T06:55:44;97968.72;;;22.06;50.44
78717;BME280;68045;50.042;14.432;2023-07-20T06:59:45;97969.56;;;22.24;49.91
78717;BME280;68045;50.042;14.432;2023-07-20T07:03:46;97977.03;;;22.44;48.98
78717;BME280;68045;50.042;14.432;2023-07-20T07:07:47;97965.50;;;22.53;48.90
78717;BME280;68045;50.042;14.432;2023-07-20T07:11:47;97965.38;;;22.92;47.71
78717;BME280;68045;50.042;14.432;2023-07-20T07:15:48;97967.41;;;23.13;46.90
78717;BME280;68045;50.042;14.432;2023-07-20T07:19:49;97969.13;;;23.35;46.19
78717;BME280;68045;50.042;14.432;2023-07-20T07:23:51;97984.59;;;23.64;46.09
78717;BME280;68045;50.042;14.432;2023-07-20T07:27:54;97970.25;;;24.19;44.92
78717;BME280;68045;50.042;14.432;2023-07-20T07:31:56;97972.50;;;24.08;44.65
78717;BME280;68045;50.042;14.432;2023-07-20T07:35:56;97971.25;;;24.05;45.08
78717;BME280;68045;50.042;14.432;2023-07-20T07:39:57;97979.50;;;23.53;45.43
78717;BME280;68045;50.042;14.432;2023-07-20T07:43:58;97980.28;;;23.71;46.09
78717;BME280;68045;50.042;14.432;2023-07-20T07:47:59;97974.84;;;24.18;43.19
78717;BME280;68045;50.042;14.432;2023-07-20T07:52:00;97981.22;;;24.43;41.74
78717;BME280;68045;50.042;14.432;2023-07-20T07:56:03;97976.66;;;24.35;41.52
78717;BME280;68045;50.042;14.432;2023-07-20T08:00:04;97978.53;;;24.43;41.58
78717;BME280;68045;50.042;14.432;2023-07-20T08:04:06;97985.50;;;24.86;40.80
78717;BME280;68045;50.042;14.432;2023-07-20T08:08:07;97976.69;;;25.18;39.98
78717;BME280;68045;50.042;14.432;2023-07-20T08:12:09;97980.91;;;25.73;37.97
78717;BME280;68045;50.042;14.432;2023-07-20T08:16:10;97984.94;;;25.34;38.71
78717;BME280;68045;50.042;14.432;2023-07-20T08:20:12;97987.69;;;25.46;38.85
78717;BME280;68045;50.042;14.432;2023-07-20T08:24:13;97986.34;;;25.53;38.71
78717;BME280;68045;50.042;14.432;2023-07-20T08:28:15;97987.59;;;25.67;39.45
78717;BME280;68045;50.042;14.432;2023-07-20T08:32:16;97984.84;;;26.25;38.61
78717;BME280;68045;50.042;14.432;2023-07-20T08:36:17;97986.66;;;26.09;37.94
78717;BME280;68045;50.042;14.432;2023-07-20T08:40:18;97988.09;;;26.06;37.28
78717;BME280;68045;50.042;14.432;2023-07-20T08:44:19;97996.91;;;26.15;36.98
78717;BME280;68045;50.042;14.432;2023-07-20T08:48:21;98003.22;;;26.19;36.84
78717;BME280;68045;50.042;14.432;2023-07-20T08:52:22;98004.13;;;26.48;38.31
78717;BME280;68045;50.042;14.432;2023-07-20T08:56:25;97996.56;;;26.29;37.62
78717;BME280;68045;50.042;14.432;2023-07-20T09:00:26;97998.81;;;26.27;37.08
78717;BME280;68045;50.042;14.432;2023-07-20T09:04:29;97998.69;;;26.48;37.51
78717;BME280;68045;50.042;14.432;2023-07-20T09:08:31;97996.91;;;26.40;37.32
78717;BME280;68045;50.042;14.432;2023-07-20T09:12:35;97989.25;;;25.47;38.71
78717;BME280;68045;50.042;14.432;2023-07-20T09:16:49;97993.97;;;25.05;39.26
78717;BME280;68045;50.042;14.432;2023-07-20T09:20:50;97998.69;;;25.08;38.94
78717;BME280;68045;50.042;14.432;2023-07-20T09:24:52;97989.25;;;24.93;38.21
78717;BME280;68045;50.042;14.432;2023-07-20T09:28:53;97988.94;;;24.95;37.87
78717;BME280;68045;50.042;14.432;2023-07-20T09:32:54;97987.16;;;24.99;38.24
78717;BME280;68045;50.042;14.432;2023-07-20T09:36:55;97981.22;;;26.21;37.44
78717;BME280;68045;50.042;14.432;2023-07-20T09:40:57;97984.13;;;27.33;35.11
78717;BME280;68045;50.042;14.432;2023-07-20T09:44:58;97979.84;;;28.78;31.98
78717;BME280;68045;50.042;14.432;2023-07-20T09:48:59;97985.47;;;30.15;29.25
78717;BME280;68045;50.042;14.432;2023-07-20T09:53:01;97984.94;;;33.64;24.62
78717;BME280;68045;50.042;14.432;2023-07-20T09:57:07;97977.50;;;30.56;27.09
78717;BME280;68045;50.042;14.432;2023-07-20T10:01:11;97973.25;;;29.60;28.37
78717;BME280;68045;50.042;14.432;2023-07-20T10:05:16;97977.91;;;28.78;29.43
78717;BME280;68045;50.042;14.432;2023-07-20T10:09:17;97979.69;;;28.90;28.72
78717;BME280;68045;50.042;14.432;2023-07-20T10:13:26;97976.78;;;30.32;27.74
78717;BME280;68045;50.042;14.432;2023-07-20T10:17:28;97983.72;;;31.54;25.13
78717;BME280;68045;50.042;14.432;2023-07-20T10:21:29;97982.25;;;31.23;26.82
78717;BME280;68045;50.042;14.432;2023-07-20T10:25:31;97978.44;;;29.45;27.99
78717;BME280;68045;50.042;14.432;2023-07-20T10:29:33;97973.78;;;27.82;30.74
78717;BME280;68045;50.042;14.432;2023-07-20T10:33:35;97966.53;;;27.27;32.67
78717;BME280;68045;50.042;14.432;2023-07-20T10:38:00;97972.94;;;26.78;32.25
78717;BME280;68045;50.042;14.432;2023-07-20T10:42:08;97974.13;;;27.21;30.58
78717;BME280;68045;50.042;14.432;2023-07-20T10:46:11;97972.16;;;29.41;28.28
78717;BME280;68045;50.042;14.432;2023-07-20T10:50:13;97978.19;;;28.73;29.09
78717;BME280;68045;50.042;14.432;2023-07-20T10:58:17;97981.22;;;27.26;32.27
78717;BME280;68045;50.042;14.432;2023-07-20T11:02:20;97982.69;;;26.55;33.34
78717;BME280;68045;50.042;14.432;2023-07-20T11:10:24;97973.16;;;26.73;33.25
78717;BME280;68045;50.042;14.432;2023-07-20T11:14:26;97972.00;;;29.76;28.59
78717;BME280;68045;50.042;14.432;2023-07-20T11:18:27;97961.84;;;31.13;28.46
78717;BME280;68045;50.042;14.432;2023-07-20T11:22:30;97965.41;;;30.53;27.83
78717;BME280;68045;50.042;14.432;2023-07-20T11:26:39;97962.34;;;30.05;28.25
78717;BME280;68045;50.042;14.432;2023-07-20T11:30:40;97972.56;;;29.63;28.65
78717;BME280;68045;50.042;14.432;2023-07-20T11:34:47;97959.03;;;29.93;27.97
78717;BME280;68045;50.042;14.432;2023-07-20T11:38:48;97951.63;;;29.90;28.03
78717;BME280;68045;50.042;14.432;2023-07-20T11:42:48;97948.13;;;29.24;29.18
78717;BME280;68045;50.042;14.432;2023-07-20T11:46:50;97940.88;;;29.32;28.64
78717;BME280;68045;50.042;14.432;2023-07-20T11:50:51;97956.97;;;30.35;27.31
78717;BME280;68045;50.042;14.432;2023-07-20T11:54:52;97946.31;;;31.17;25.90
78717;BME280;68045;50.042;14.432;2023-07-20T11:59:00;97930.28;;;30.75;25.47
78717;BME280;68045;50.042;14.432;2023-07-20T12:03:05;97929.13;;;30.76;26.53
78717;BME280;68045;50.042;14.432;2023-07-20T12:07:07;97939.19;;;29.23;28.07
78717;BME280;68045;50.042;14.432;2023-07-20T12:11:08;97940.56;;;28.75;28.64
78717;BME280;68045;50.042;14.432;2023-07-20T12:19:13;97938.28;;;28.23;29.80
78717;BME280;68045;50.042;14.432;2023-07-20T12:23:14;97940.06;;;29.08;28.10
78717;BME280;68045;50.042;14.432;2023-07-20T12:27:17;97930.91;;;29.16;27.99
78717;BME280;68045;50.042;14.432;2023-07-20T12:31:18;97919.69;;;28.79;28.28
78717;BME280;68045;50.042;14.432;2023-07-20T12:35:19;97916.47;;;29.12;28.40
78717;BME280;68045;50.042;14.432;2023-07-20T12:39:20;97918.22;;;29.24;28.10
78717;BME280;68045;50.042;14.432;2023-07-20T12:43:21;97917.09;;;29.71;27.93
78717;BME280;68045;50.042;14.432;2023-07-20T12:47:22;97911.84;;;28.55;28.83
78717;BME280;68045;50.042;14.432;2023-07-20T12:51:23;97915.81;;;27.90;29.43
78717;BME280;68045;50.042;14.432;2023-07-20T12:55:24;97926.50;;;27.52;30.25
78717;BME280;68045;50.042;14.432;2023-07-20T12:59:24;97929.94;;;27.05;30.79
78717;BME280;68045;50.042;14.432;2023-07-20T13:03:25;97920.19;;;27.16;30.59
78717;BME280;68045;50.042;14.432;2023-07-20T13:07:34;97910.94;;;27.96;30.77
78717;BME280;68045;50.042;14.432;2023-07-20T13:11:35;97914.25;;;28.60;29.02
78717;BME280;68045;50.042;14.432;2023-07-20T13:15:43;97919.34;;;29.00;28.15
78717;BME280;68045;50.042;14.432;2023-07-20T13:19:44;97905.91;;;28.68;27.43
78717;BME280;68045;50.042;14.432;2023-07-20T13:23:45;97910.78;;;28.24;28.82
78717;BME280;68045;50.042;14.432;2023-07-20T13:27:47;97902.59;;;28.05;28.92
78717;BME280;68045;50.042;14.432;2023-07-20T13:31:48;97899.03;;;28.36;28.84
78717;BME280;68045;50.042;14.432;2023-07-20T13:35:49;97895.53;;;28.93;27.44
78717;BME280;68045;50.042;14.432;2023-07-20T13:39:50;97899.41;;;29.58;26.75
78717;BME280;68045;50.042;14.432;2023-07-20T13:43:51;97896.75;;;29.88;26.53
78717;BME280;68045;50.042;14.432;2023-07-20T13:47:52;97898.19;;;29.32;26.34
78717;BME280;68045;50.042;14.432;2023-07-20T13:51:53;97893.75;;;29.01;26.67
78717;BME280;68045;50.042;14.432;2023-07-20T13:55:54;97887.03;;;28.56;27.65
78717;BME280;68045;50.042;14.432;2023-07-20T13:59:55;97887.97;;;28.83;26.96
78717;BME280;68045;50.042;14.432;2023-07-20T14:03:56;97886.50;;;28.89;26.97
78717;BME280;68045;50.042;14.432;2023-07-20T14:07:57;97868.00;;;28.95;26.56
78717;BME280;68045;50.042;14.432;2023-07-20T14:11:58;97878.38;;;28.70;26.56
78717;BME280;68045;50.042;14.432;2023-07-20T14:15:59;97881.84;;;28.48;26.79
78717;BME280;68045;50.042;14.432;2023-07-20T14:20:00;97878.53;;;28.77;26.44
78717;BME280;68045;50.042;14.432;2023-07-20T14:24:01;97881.31;;;28.61;26.85
78717;BME280;68045;50.042;14.432;2023-07-20T14:28:02;97884.56;;;27.97;28.07
78717;BME280;68045;50.042;14.432;2023-07-20T14:32:03;97883.16;;;28.38;27.60
78717;BME280;68045;50.042;14.432;2023-07-20T14:36:06;97885.66;;;28.46;27.11
78717;BME280;68045;50.042;14.432;2023-07-20T14:40:08;97888.19;;;28.55;26.33
78717;BME280;68045;50.042;14.432;2023-07-20T14:44:09;97890.03;;;28.51;26.65
78717;BME280;68045;50.042;14.432;2023-07-20T14:48:10;97881.25;;;28.58;26.95
78717;BME280;68045;50.042;14.432;2023-07-20T14:52:12;97885.75;;;28.69;26.48
78717;BME280;68045;50.042;14.432;2023-07-20T14:56:13;97870.03;;;28.59;26.35
78717;BME280;68045;50.042;14.432;2023-07-20T15:00:14;97883.94;;;27.84;28.74
78717;BME280;68045;50.042;14.432;2023-07-20T15:04:15;97893.25;;;27.07;31.65
78717;BME280;68045;50.042;14.432;2023-07-20T15:08:17;97898.53;;;26.48;32.86
78717;BME280;68045;50.042;14.432;2023-07-20T15:12:19;97904.09;;;26.27;33.06
78717;BME280;68045;50.042;14.432;2023-07-20T15:16:20;97918.31;;;26.24;33.28
78717;BME280;68045;50.042;14.432;2023-07-20T15:20:21;97912.22;;;26.39;32.70
78717;BME280;68045;50.042;14.432;2023-07-20T15:24:22;97915.91;;;26.59;32.14
78717;BME280;68045;50.042;14.432;2023-07-20T15:28:22;97913.13;;;26.43;32.97
78717;BME280;68045;50.042;14.432;2023-07-20T15:32:23;97915.06;;;26.18;33.39
78717;BME280;68045;50.042;14.432;2023-07-20T15:36:24;97931.56;;;26.01;34.07
78717;BME280;68045;50.042;14.432;2023-07-20T15:40:25;97925.91;;;25.82;34.49
78717;BME280;68045;50.042;14.432;2023-07-20T15:44:26;97927.13;;;25.72;34.59
78717;BME280;68045;50.042;14.432;2023-07-20T15:48:27;97931.84;;;25.63;35.37
78717;BME280;68045;50.042;14.432;2023-07-20T15:52:28;97936.91;;;25.52;36.01
78717;BME280;68045;50.042;14.432;2023-07-20T15:56:29;97932.59;;;25.51;35.92
78717;BME280;68045;50.042;14.432;2023-07-20T16:00:29;97938.97;;;25.22;36.02
78717;BME280;68045;50.042;14.432;2023-07-20T16:04:30;97944.59;;;25.17;35.76
78717;BME280;68045;50.042;14.432;2023-07-20T16:08:31;97950.53;;;25.10;36.48
78717;BME280;68045;50.042;14.432;2023-07-20T16:12:32;97955.03;;;25.06;36.73
78717;BME280;68045;50.042;14.432;2023-07-20T16:16:34;97958.13;;;24.75;36.46
78717;BME280;68045;50.042;14.432;2023-07-20T16:20:35;97954.81;;;24.90;36.09
78717;BME280;68045;50.042;14.432;2023-07-20T16:24:38;97948.38;;;24.83;36.41
78717;BME280;68045;50.042;14.432;2023-07-20T16:28:39;97955.59;;;23.99;37.81
78717;BME280;68045;50.042;14.432;2023-07-20T16:32:42;97958.69;;;24.09;37.42
78717;BME280;68045;50.042;14.432;2023-07-20T16:36:43;97972.69;;;24.03;37.52
78717;BME280;68045;50.042;14.432;2023-07-20T16:40:44;97971.84;;;23.81;36.72
78717;BME280;68045;50.042;14.432;2023-07-20T16:44:50;97970.13;;;23.77;36.91
78717;BME280;68045;50.042;14.432;2023-07-20T16:48:51;97970.16;;;24.06;36.66
78717;BME280;68045;50.042;14.432;2023-07-20T16:52:52;97966.44;;;24.20;36.37
78717;BME280;68045;50.042;14.432;2023-07-20T16:56:53;97969.13;;;24.20;36.58
78717;BME280;68045;50.042;14.432;2023-07-20T17:01:01;97962.75;;;23.95;36.75
78717;BME280;68045;50.042;14.432;2023-07-20T17:05:03;97967.66;;;23.46;37.74
78717;BME280;68045;50.042;14.432;2023-07-20T17:09:04;97971.91;;;23.55;38.36
78717;BME280;68045;50.042;14.432;2023-07-20T17:13:05;97969.84;;;23.52;38.18
78717;BME280;68045;50.042;14.432;2023-07-20T17:17:07;97967.06;;;23.32;39.00
78717;BME280;68045;50.042;14.432;2023-07-20T17:21:08;97968.53;;;23.12;39.08
78717;BME280;68045;50.042;14.432;2023-07-20T17:25:09;97967.72;;;23.11;39.19
78717;BME280;68045;50.042;14.432;2023-07-20T17:29:10;97967.25;;;23.09;38.78
78717;BME280;68045;50.042;14.432;2023-07-20T17:33:11;97985.78;;;23.02;39.03
78717;BME280;68045;50.042;14.432;2023-07-20T17:37:12;97984.84;;;23.07;38.75
78717;BME280;68045;50.042;14.432;2023-07-20T17:41:17;97991.03;;;23.07;38.85
78717;BME280;68045;50.042;14.432;2023-07-20T17:45:18;97988.34;;;23.07;38.30
78717;BME280;68045;50.042;14.432;2023-07-20T17:49:18;97990.84;;;23.03;38.57
78717;BME280;68045;50.042;14.432;2023-07-20T17:53:19;97993.69;;;22.81;39.02
78717;BME280;68045;50.042;14.432;2023-07-20T17:57:20;97984.69;;;22.77;39.43
78717;BME280;68045;50.042;14.432;2023-07-20T18:01:21;97983.06;;;22.59;39.20
78717;BME280;68045;50.042;14.432;2023-07-20T18:05:23;97984.78;;;22.55;38.90
78717;BME280;68045;50.042;14.432;2023-07-20T18:09:24;97985.44;;;22.52;38.95
78717;BME280;68045;50.042;14.432;2023-07-20T18:13:25;97983.22;;;22.45;39.27
78717;BME280;68045;50.042;14.432;2023-07-20T18:17:26;97991.75;;;22.38;39.56
78717;BME280;68045;50.042;14.432;2023-07-20T18:21:27;97992.06;;;22.37;39.67
78717;BME280;68045;50.042;14.432;2023-07-20T18:25:28;97988.38;;;22.24;39.90
78717;BME280;68045;50.042;14.432;2023-07-20T18:29:30;97995.00;;;22.18;40.31
78717;BME280;68045;50.042;14.432;2023-07-20T18:33:31;97996.00;;;21.91;40.92
78717;BME280;68045;50.042;14.432;2023-07-20T18:37:32;98001.03;;;21.84;40.87
78717;BME280;68045;50.042;14.432;2023-07-20T18:41:32;97998.94;;;21.72;41.26
78717;BME280;68045;50.042;14.432;2023-07-20T18:45:33;98003.59;;;21.58;41.68
78717;BME280;68045;50.042;14.432;2023-07-20T18:49:35;98002.81;;;21.57;42.16
78717;BME280;68045;50.042;14.432;2023-07-20T18:53:36;98010.31;;;21.47;42.34
78717;BME280;68045;50.042;14.432;2023-07-20T18:57:37;98013.88;;;21.33;43.36
78717;BME280;68045;50.042;14.432;2023-07-20T19:01:38;98013.44;;;21.40;43.38
78717;BME280;68045;50.042;14.432;2023-07-20T19:05:38;98015.34;;;21.39;43.41
78717;BME280;68045;50.042;14.432;2023-07-20T19:09:42;98014.41;;;21.44;43.38
78717;BME280;68045;50.042;14.432;2023-07-20T19:13:42;98025.75;;;21.41;43.59
78717;BME280;68045;50.042;14.432;2023-07-20T19:17:43;98031.69;;;21.29;43.55
78717;BME280;68045;50.042;14.432;2023-07-20T19:21:44;98040.25;;;21.31;43.75
78717;BME280;68045;50.042;14.432;2023-07-20T19:25:45;98048.19;;;21.23;44.13
78717;BME280;68045;50.042;14.432;2023-07-20T19:29:46;98047.25;;;21.05;44.28
78717;BME280;68045;50.042;14.432;2023-07-20T19:33:48;98062.25;;;21.06;43.82
78717;BME280;68045;50.042;14.432;2023-07-20T19:37:49;98064.75;;;20.66;44.33
78717;BME280;68045;50.042;14.432;2023-07-20T19:41:50;98060.50;;;20.51;44.74
78717;BME280;68045;50.042;14.432;2023-07-20T19:45:52;98070.28;;;20.42;45.04
78717;BME280;68045;50.042;14.432;2023-07-20T19:49:53;98071.78;;;20.35;45.39
78717;BME280;68045;50.042;14.432;2023-07-20T19:53:54;98069.50;;;20.42;45.41
78717;BME280;68045;50.042;14.432;2023-07-20T19:57:54;98067.44;;;20.25;45.79
78717;BME280;68045;50.042;14.432;2023-07-20T20:01:56;98074.75;;;20.19;46.26
78717;BME280;68045;50.042;14.432;2023-07-20T20:05:57;98074.03;;;20.00;47.00
78717;BME280;68045;50.042;14.432;2023-07-20T20:09:58;98065.19;;;19.86;47.78
78717;BME280;68045;50.042;14.432;2023-07-20T20:13:59;98071.63;;;19.71;48.53
78717;BME280;68045;50.042;14.432;2023-07-20T20:17:59;98080.34;;;19.77;48.61
78717;BME280;68045;50.042;14.432;2023-07-20T20:22:00;98076.34;;;19.60;49.01
78717;BME280;68045;50.042;14.432;2023-07-20T20:26:05;98073.94;;;19.59;49.23
78717;BME280;68045;50.042;14.432;2023-07-20T20:30:07;98076.09;;;19.57;49.24
78717;BME280;68045;50.042;14.432;2023-07-20T20:34:08;98079.31;;;19.59;49.38
78717;BME280;68045;50.042;14.432;2023-07-20T20:38:10;98078.84;;;19.52;49.77
78717;BME280;68045;50.042;14.432;2023-07-20T20:42:11;98078.00;;;19.37;50.34
78717;BME280;68045;50.042;14.432;2023-07-20T20:46:12;98078.25;;;19.41;50.74
78717;BME280;68045;50.042;14.432;2023-07-20T20:50:14;98076.72;;;19.35;50.89
78717;BME280;68045;50.042;14.432;2023-07-20T20:54:20;98078.13;;;19.32;51.08
78717;BME280;68045;50.042;14.432;2023-07-20T20:58:21;98081.44;;;19.24;51.67
78717;BME280;68045;50.042;14.432;2023-07-20T21:02:21;98083.31;;;19.24;51.41
78717;BME280;68045;50.042;14.432;2023-07-20T21:06:22;98087.78;;;19.28;51.66
78717;BME280;68045;50.042;14.432;2023-07-20T21:10:23;98090.69;;;19.32;51.69
78717;BME280;68045;50.042;14.432;2023-07-20T21:14:24;98082.00;;;19.40;51.28
78717;BME280;68045;50.042;14.432;2023-07-20T21:18:25;98094.00;;;19.61;50.65